Time;durP1;ratioP1;P1;durP2;ratioP2;P2;SDS_P1;SDS_P2;PMS_P1;PMS_P2;Temp;Humidity;BMP_temperature;BMP_pressure;BME280_temperature;BME280_humidity;BME280_pressure;Samples;Min_cycle;Max_cycle;Signal;HPM_P1;HPM_P2
2022/03/17 00:01:19;;;;;;;26.50;21.77;;;11.60;83.20;;;;;;5011252;28;20031;-65
2022/03/17 00:03:45;;;;;;;25.98;21.45;;;11.60;83.30;;;;;;5011471;28;20116;-66
2022/03/17 00:06:13;;;;;;;27.23;23.55;;;11.60;83.30;;;;;;5026846;28;20029;-66
2022/03/17 00:08:39;;;;;;;24.88;21.25;;;11.60;83.20;;;;;;5029317;28;20537;-67
2022/03/17 00:11:04;;;;;;;24.95;21.10;;;11.60;83.50;;;;;;5029358;28;20036;-66
2022/03/17 00:13:30;;;;;;;25.67;20.77;;;11.60;83.70;;;;;;5029221;28;20032;-65
2022/03/17 00:15:56;;;;;;;26.55;20.90;;;11.60;83.90;;;;;;5029630;28;20049;-65
2022/03/17 00:18:22;;;;;;;27.35;22.08;;;11.60;83.80;;;;;;5029186;28;20097;-65
2022/03/17 00:20:47;;;;;;;27.02;21.13;;;11.60;83.70;;;;;;5011094;28;20477;-66
2022/03/17 00:23:13;;;;;;;25.95;21.55;;;11.60;83.90;;;;;;5029234;28;20030;-65
2022/03/17 00:25:38;;;;;;;26.02;21.25;;;11.60;84.10;;;;;;5028949;28;20087;-66
2022/03/17 00:28:04;;;;;;;25.52;21.48;;;11.60;84.10;;;;;;5029168;28;20033;-65
2022/03/17 00:30:30;;;;;;;26.25;21.02;;;11.60;84.40;;;;;;5028785;28;20025;-65
2022/03/17 00:32:55;;;;;;;28.45;22.80;;;11.60;84.50;;;;;;5028928;28;20202;-66
2022/03/17 00:35:38;;;;;;;27.20;22.80;;;11.50;84.40;;;;;;5029510;28;20025;-65
2022/03/17 00:38:08;;;;;;;33.17;22.85;;;11.50;84.70;;;;;;5029101;28;20120;-66
2022/03/17 00:40:36;;;;;;;25.88;20.83;;;11.50;84.70;;;;;;5029388;28;20101;-65
2022/03/17 00:43:05;;;;;;;29.38;23.30;;;11.50;85.60;;;;;;5028681;28;20072;-66
2022/03/17 00:45:32;;;;;;;29.58;22.23;;;11.50;84.90;;;;;;5028971;28;20040;-65
2022/03/17 00:47:57;;;;;;;24.55;21.02;;;11.50;84.80;;;;;;5028655;28;20042;-65
2022/03/17 00:50:23;;;;;;;27.83;22.98;;;11.50;85.20;;;;;;5029046;28;20036;-66
2022/03/17 00:52:49;;;;;;;28.75;23.65;;;11.50;85.20;;;;;;5028313;28;20044;-65
2022/03/17 00:55:15;;;;;;;27.45;23.13;;;11.50;85.20;;;;;;5028529;28;20041;-65
2022/03/17 00:57:41;;;;;;;33.97;24.83;;;11.50;85.40;;;;;;5028652;28;20025;-65
2022/03/17 01:00:08;;;;;;;26.98;21.88;;;11.50;85.30;;;;;;5028530;28;20536;-65
2022/03/17 01:02:34;;;;;;;29.48;22.67;;;11.50;85.40;;;;;;5028268;28;20021;-65
2022/03/17 01:04:59;;;;;;;29.45;22.90;;;11.40;85.60;;;;;;5028541;28;20079;-65
2022/03/17 01:07:25;;;;;;;29.50;23.70;;;11.40;85.70;;;;;;5028308;28;20029;-65
2022/03/17 01:09:51;;;;;;;26.83;22.27;;;11.40;85.90;;;;;;5028102;28;20497;-66
2022/03/17 01:12:16;;;;;;;27.05;22.23;;;11.40;86.10;;;;;;5027764;28;20112;-66
2022/03/17 01:14:42;;;;;;;28.83;23.60;;;11.30;86.10;;;;;;5028234;28;20021;-66
2022/03/17 01:17:07;;;;;;;28.33;23.30;;;11.30;86.20;;;;;;5028068;28;20052;-66
2022/03/17 01:19:33;;;;;;;28.77;23.38;;;11.30;86.10;;;;;;5028270;28;20560;-66
2022/03/17 01:21:59;;;;;;;27.10;23.45;;;11.30;86.20;;;;;;5028195;28;20071;-66
2022/03/17 01:24:25;;;;;;;28.40;22.30;;;11.30;86.50;;;;;;5013221;28;20110;-66
2022/03/17 01:26:50;;;;;;;29.75;22.52;;;11.30;86.70;;;;;;5027873;28;20494;-65
2022/03/17 01:29:16;;;;;;;29.27;23.45;;;11.30;86.80;;;;;;5028067;28;20100;-66
2022/03/17 01:31:43;;;;;;;27.88;22.60;;;11.30;86.90;;;;;;5028032;28;20573;-67
2022/03/17 01:34:08;;;;;;;29.83;22.95;;;11.30;87.90;;;;;;5027921;28;20095;-65
2022/03/17 01:36:34;;;;;;;29.30;21.83;;;11.30;87.40;;;;;;5028043;28;20465;-65
2022/03/17 01:38:59;;;;;;;27.70;22.02;;;11.30;87.70;;;;;;5027830;28;20501;-65
2022/03/17 01:41:25;;;;;;;31.23;22.92;;;11.30;87.90;;;;;;5027964;28;20033;-66
2022/03/17 01:43:50;;;;;;;28.67;23.25;;;11.40;87.80;;;;;;5027664;28;20033;-65
2022/03/17 01:46:18;;;;;;;30.48;23.83;;;11.40;87.80;;;;;;5027980;28;20408;-65
2022/03/17 01:48:44;;;;;;;33.13;23.55;;;11.40;87.90;;;;;;5007909;28;20099;-65
2022/03/17 01:51:09;;;;;;;29.55;23.55;;;11.40;87.90;;;;;;5027694;28;20485;-67
2022/03/17 01:53:35;;;;;;;26.17;22.25;;;11.40;87.90;;;;;;5027820;28;20072;-65
2022/03/17 01:56:03;;;;;;;26.50;22.35;;;11.40;88.20;;;;;;5027579;28;20056;-66
2022/03/17 01:58:28;;;;;;;28.92;22.67;;;11.40;88.40;;;;;;5027698;28;20021;-66
2022/03/17 02:00:54;;;;;;;28.63;23.02;;;11.40;88.50;;;;;;5007207;28;20544;-67
2022/03/17 02:03:19;;;;;;;28.23;23.10;;;11.40;88.70;;;;;;5027820;28;20063;-66
2022/03/17 02:05:45;;;;;;;29.92;24.80;;;11.40;88.80;;;;;;5027737;28;20048;-66
2022/03/17 02:08:13;;;;;;;27.92;23.08;;;11.40;88.90;;;;;;5027412;28;20073;-65
2022/03/17 02:13:23;;;;;;;26.00;21.48;;;11.40;89.30;;;;;;5026986;28;20038;-66
2022/03/17 02:15:53;;;;;;;31.98;23.65;;;11.40;89.60;;;;;;5027372;28;20033;-65
2022/03/17 02:18:19;;;;;;;;;;;11.40;89.90;;;;;;5027970;28;20028;-66
2022/03/17 02:20:45;;;;;;;33.08;23.77;;;11.40;90.00;;;;;;5027540;28;19905;-65
2022/03/17 02:25:58;;;;;;;27.77;21.92;;;11.30;90.50;;;;;;5031701;28;20082;-66
2022/03/17 02:28:25;;;;;;;29.00;22.75;;;11.30;90.50;;;;;;5031349;28;20021;-66
2022/03/17 02:30:51;;;;;;;28.02;22.05;;;11.30;90.60;;;;;;5031325;28;20045;-65
2022/03/17 02:33:16;;;;;;;26.17;21.52;;;11.30;90.60;;;;;;5031185;28;20021;-66
2022/03/17 02:35:43;;;;;;;26.48;21.13;;;11.30;90.70;;;;;;5031265;28;20018;-66
2022/03/17 02:38:13;;;;;;;27.80;22.30;;;11.40;90.90;;;;;;5031009;28;20021;-66
2022/03/17 02:40:41;;;;;;;33.05;23.52;;;11.40;91.00;;;;;;5031048;28;20488;-66
2022/03/17 02:43:07;;;;;;;30.92;22.13;;;11.40;91.10;;;;;;5030971;28;20033;-65
2022/03/17 02:45:34;;;;;;;30.10;23.40;;;11.40;91.20;;;;;;5031037;28;20049;-65
2022/03/17 02:48:00;;;;;;;29.60;23.52;;;11.50;91.40;;;;;;5030698;28;20030;-65
2022/03/17 02:50:26;;;;;;;28.83;23.08;;;11.40;91.60;;;;;;5030841;28;20029;-65
2022/03/17 02:52:51;;;;;;;27.45;22.55;;;11.50;91.80;;;;;;5010042;28;20374;-65
2022/03/17 02:55:17;;;;;;;28.80;22.00;;;11.50;91.80;;;;;;5030595;28;20050;-65
2022/03/17 02:57:44;;;;;;;28.00;22.23;;;11.50;91.90;;;;;;5030878;28;20488;-66
2022/03/17 03:00:11;;;;;;;27.15;23.05;;;11.50;92.00;;;;;;5030613;28;20444;-67
2022/03/17 03:02:37;;;;;;;30.90;23.33;;;11.50;92.10;;;;;;5012608;28;20116;-66
2022/03/17 03:05:04;;;;;;;34.35;24.50;;;11.50;92.20;;;;;;5030784;28;20029;-65
2022/03/17 03:07:30;;;;;;;30.00;22.13;;;11.60;92.40;;;;;;5030279;28;20507;-65
2022/03/17 03:09:56;;;;;;;32.30;22.90;;;11.60;92.60;;;;;;5031318;28;20453;-65
2022/03/17 03:12:22;;;;;;;27.77;21.65;;;11.60;92.80;;;;;;5011678;28;20038;-65
2022/03/17 03:14:49;;;;;;;30.88;23.63;;;11.60;92.90;;;;;;5030492;28;20405;-66
2022/03/17 03:17:14;;;;;;;31.92;22.77;;;11.60;93.20;;;;;;5030324;28;20029;-66
2022/03/17 03:19:40;;;;;;;32.15;23.42;;;11.60;93.50;;;;;;5030131;28;20018;-65
2022/03/17 03:22:05;;;;;;;32.80;24.73;;;11.60;93.80;;;;;;5030348;28;20048;-66
2022/03/17 03:24:31;;;;;;;33.13;26.02;;;11.60;94.20;;;;;;5030182;28;20065;-65
2022/03/17 03:26:57;;;;;;;33.60;24.27;;;11.70;94.70;;;;;;5030351;28;20091;-66
2022/03/17 03:29:22;;;;;;;25.27;19.75;;;11.60;95.00;;;;;;5030233;28;20029;-65
2022/03/17 03:31:50;;;;;;;21.73;17.48;;;11.60;95.80;;;;;;5029793;28;20496;-65
2022/03/17 03:34:16;;;;;;;21.63;16.60;;;11.60;96.70;;;;;;5030006;28;20013;-65
2022/03/17 03:37:23;;;;;;;17.83;14.50;;;11.50;97.60;;;;;;5029656;28;20025;-65
2022/03/17 03:39:30;;;;;;;20.20;13.55;;;11.40;98.30;;;;;;5018454;28;20033;-66
2022/03/17 03:41:56;;;;;;;17.23;13.00;;;11.40;98.90;;;;;;5030241;28;20030;-65
2022/03/17 03:44:22;;;;;;;13.40;11.35;;;11.40;99.30;;;;;;5029701;28;20037;-66
2022/03/17 03:46:48;;;;;;;14.55;11.77;;;11.40;99.60;;;;;;5029922;28;20400;-65
2022/03/17 03:49:13;;;;;;;14.50;12.98;;;11.30;99.80;;;;;;5011901;28;20029;-65
2022/03/17 03:51:39;;;;;;;15.38;13.25;;;11.30;99.90;;;;;;5029208;28;20026;-66
2022/03/17 03:54:17;;;;;;;14.25;12.23;;;11.30;99.90;;;;;;5030678;28;20030;-65
2022/03/17 03:56:53;;;;;;;14.82;12.10;;;11.20;99.90;;;;;;5028239;28;20528;-65
2022/03/17 03:59:21;;;;;;;11.40;8.88;;;11.20;99.90;;;;;;5029578;28;20063;-65
2022/03/17 04:01:52;;;;;;;6.85;5.45;;;11.10;99.60;;;;;;5029369;28;20033;-66
2022/03/17 04:04:19;;;;;;;5.47;3.92;;;11.10;98.40;;;;;;5029540;28;20506;-65
2022/03/17 04:06:46;;;;;;;4.95;2.90;;;11.00;97.70;;;;;;5029283;28;20489;-65
2022/03/17 04:09:14;;;;;;;3.95;2.70;;;10.90;96.80;;;;;;5028921;28;20026;-67
2022/03/17 04:11:44;;;;;;;5.57;3.38;;;10.80;96.50;;;;;;5029368;28;20191;-65
2022/03/17 04:14:11;;;;;;;5.55;2.97;;;10.70;96.30;;;;;;5011178;28;20492;-65
2022/03/17 04:16:37;;;;;;;6.13;3.00;;;10.70;96.30;;;;;;5029387;28;20521;-66
2022/03/17 04:19:03;;;;;;;4.68;3.40;;;10.60;96.30;;;;;;5029028;28;20028;-66
2022/03/17 04:21:30;;;;;;;6.18;3.72;;;10.60;96.30;;;;;;5028985;28;20030;-66
2022/03/17 04:23:55;;;;;;;4.53;3.15;;;10.50;96.30;;;;;;5028959;28;20526;-66
2022/03/17 04:26:21;;;;;;;5.50;3.78;;;10.50;96.30;;;;;;5029072;28;20022;-66
2022/03/17 04:28:46;;;;;;;4.95;3.50;;;10.50;96.30;;;;;;5029012;28;20401;-66
2022/03/17 04:31:12;;;;;;;5.60;3.58;;;10.50;96.30;;;;;;5028857;28;20056;-66
2022/03/17 04:33:38;;;;;;;6.35;3.50;;;10.40;96.20;;;;;;5029243;28;20410;-66
2022/03/17 04:36:05;;;;;;;8.52;4.07;;;10.40;96.20;;;;;;5029185;28;20465;-66
2022/03/17 04:38:31;;;;;;;6.28;4.10;;;10.40;96.20;;;;;;5028924;28;20141;-66
2022/03/17 04:40:57;;;;;;;5.38;3.90;;;10.30;96.10;;;;;;5028735;28;20489;-66
2022/03/17 04:43:23;;;;;;;6.93;4.38;;;10.30;96.00;;;;;;5028655;28;20151;-66
2022/03/17 04:45:48;;;;;;;8.38;6.45;;;10.30;95.90;;;;;;5028319;28;20029;-65
2022/03/17 04:48:15;;;;;;;11.48;6.43;;;10.20;95.80;;;;;;5028277;28;20059;-65
2022/03/17 04:50:41;;;;;;;8.65;6.45;;;10.20;95.90;;;;;;5028468;28;20025;-65
2022/03/17 04:55:51;;;;;;;13.90;9.05;;;10.10;96.00;;;;;;5028377;28;20503;-66
2022/03/17 04:58:17;;;;;;;11.23;7.93;;;10.10;96.10;;;;;;5028703;28;20060;-66
2022/03/17 05:00:43;;;;;;;13.77;8.90;;;10.00;96.20;;;;;;5028271;28;20428;-66
2022/03/17 05:03:09;;;;;;;13.15;9.70;;;10.00;96.20;;;;;;5028312;28;20056;-66
2022/03/17 05:05:35;;;;;;;18.85;10.20;;;10.00;96.20;;;;;;5028565;28;20033;-65
2022/03/17 05:08:00;;;;;;;16.08;11.48;;;10.00;96.30;;;;;;5028315;28;20109;-65
2022/03/17 05:10:28;;;;;;;14.63;10.93;;;10.00;96.30;;;;;;5010664;28;20035;-66
2022/03/17 05:12:55;;;;;;;20.77;10.70;;;9.90;96.30;;;;;;5010425;28;20029;-66
2022/03/17 05:15:20;;;;;;;17.70;11.05;;;9.90;96.30;;;;;;5028412;28;20068;-66
2022/03/17 05:17:47;;;;;;;18.60;9.30;;;9.90;96.40;;;;;;5028286;28;20025;-66
2022/03/17 05:20:13;;;;;;;13.38;7.93;;;9.80;96.20;;;;;;5028028;28;20021;-66
2022/03/17 05:22:40;;;;;;;15.77;6.97;;;9.80;96.10;;;;;;5028395;28;20583;-66
2022/03/17 05:25:08;;;;;;;11.40;5.68;;;9.80;96.10;;;;;;5028404;28;20061;-66
2022/03/17 05:27:37;;;;;;;11.15;5.05;;;9.70;95.90;;;;;;5028323;28;20063;-66
2022/03/17 05:30:03;;;;;;;8.50;3.80;;;9.70;95.80;;;;;;5027993;28;20037;-66
2022/03/17 05:32:29;;;;;;;11.05;3.50;;;9.60;95.40;;;;;;5027672;28;20025;-66
2022/03/17 05:34:55;;;;;;;11.45;4.88;;;9.60;95.00;;;;;;5028061;28;20393;-66
2022/03/17 05:37:20;;;;;;;12.77;3.72;;;9.60;94.10;;;;;;5010257;28;20080;-67
2022/03/17 05:39:46;;;;;;;7.82;2.50;;;9.50;94.00;;;;;;5028485;28;20113;-65
2022/03/17 05:42:12;;;;;;;8.65;2.65;;;9.50;93.90;;;;;;5027860;28;20074;-66
2022/03/17 05:44:37;;;;;;;9.93;2.83;;;9.50;93.80;;;;;;5027867;28;20033;-66
2022/03/17 05:47:04;;;;;;;9.02;2.38;;;9.50;93.70;;;;;;5028231;28;20049;-65
2022/03/17 05:49:30;;;;;;;13.02;3.03;;;9.50;93.80;;;;;;5028137;28;20034;-66
2022/03/17 05:51:56;;;;;;;9.98;3.05;;;9.40;93.80;;;;;;5028067;28;20053;-65
2022/03/17 05:54:21;;;;;;;12.50;3.67;;;9.40;93.80;;;;;;5009749;28;20065;-65
2022/03/17 05:56:47;;;;;;;8.25;2.40;;;9.40;93.80;;;;;;5027819;28;20025;-66
2022/03/17 05:59:12;;;;;;;14.80;3.50;;;9.40;93.60;;;;;;5030609;28;20020;-65
2022/03/17 06:01:38;;;;;;;9.05;2.97;;;9.40;93.40;;;;;;5031825;28;20025;-66
2022/03/17 06:04:04;;;;;;;9.18;2.45;;;9.30;93.30;;;;;;5035472;28;20044;-65
2022/03/17 06:06:29;;;;;;;8.95;2.47;;;9.30;93.30;;;;;;5035893;28;20380;-66
2022/03/17 06:08:55;;;;;;;7.95;2.08;;;9.30;93.30;;;;;;5035648;28;20026;-65
2022/03/17 06:11:21;;;;;;;6.03;1.55;;;9.30;93.20;;;;;;5035573;28;20043;-66
2022/03/17 06:13:47;;;;;;;9.23;2.33;;;9.20;93.10;;;;;;5035602;28;20029;-65
2022/03/17 06:16:13;;;;;;;5.82;1.63;;;9.20;93.00;;;;;;5035554;28;20548;-65
2022/03/17 06:18:39;;;;;;;7.43;1.63;;;9.20;92.80;;;;;;5035495;28;20112;-66
2022/03/17 06:21:05;;;;;;;8.63;1.67;;;9.20;92.80;;;;;;5035332;28;20021;-66
2022/03/17 06:23:31;;;;;;;5.50;1.30;;;9.20;92.70;;;;;;5035460;28;20483;-65
2022/03/17 06:25:57;;;;;;;6.68;1.52;;;9.20;92.70;;;;;;5035362;28;20029;-65
2022/03/17 06:28:22;;;;;;;7.90;1.40;;;9.20;92.70;;;;;;5035289;28;20084;-66
2022/03/17 06:30:48;;;;;;;4.75;1.10;;;9.20;92.80;;;;;;5035072;28;20024;-65
2022/03/17 06:33:14;;;;;;;7.53;1.65;;;9.20;93.00;;;;;;5035199;28;20112;-65
2022/03/17 06:35:40;;;;;;;6.85;1.60;;;9.20;93.10;;;;;;5035199;28;20543;-65
2022/03/17 06:38:07;;;;;;;6.65;2.03;;;9.20;93.30;;;;;;5035047;28;20033;-65
2022/03/17 06:40:33;;;;;;;7.07;1.65;;;9.20;93.40;;;;;;5017322;28;20018;-65
2022/03/17 06:42:59;;;;;;;7.53;1.60;;;9.20;93.60;;;;;;5035003;28;20100;-65
2022/03/17 06:45:25;;;;;;;6.93;1.83;;;9.20;93.70;;;;;;5034904;28;20021;-65
2022/03/17 06:47:51;;;;;;;11.48;1.80;;;9.10;93.80;;;;;;5034590;28;20034;-65
2022/03/17 06:50:20;;;;;;;9.52;2.03;;;9.10;94.00;;;;;;5014216;28;20038;-65
2022/03/17 06:52:46;;;;;;;6.07;1.60;;;9.10;94.10;;;;;;5032840;28;20448;-66
2022/03/17 06:55:11;;;;;;;10.90;2.13;;;9.10;94.20;;;;;;5033551;28;20081;-65
2022/03/17 06:57:38;;;;;;;9.27;1.70;;;9.10;94.20;;;;;;5017124;28;20104;-65
2022/03/17 07:00:09;;;;;;;8.20;2.20;;;9.10;94.20;;;;;;5034463;28;20029;-65
2022/03/17 07:02:35;;;;;;;9.75;2.10;;;9.20;94.20;;;;;;5014847;28;20084;-65
2022/03/17 07:05:01;;;;;;;8.82;1.63;;;9.20;94.10;;;;;;5014885;28;20233;-65
2022/03/17 07:07:27;;;;;;;10.52;2.13;;;9.20;94.10;;;;;;5016026;28;20037;-65
2022/03/17 07:09:53;;;;;;;12.38;2.13;;;9.20;94.00;;;;;;5033431;28;20032;-66
2022/03/17 07:12:18;;;;;;;12.63;2.22;;;9.20;93.70;;;;;;5032464;28;20030;-65
2022/03/17 07:14:44;;;;;;;7.45;1.48;;;9.20;93.50;;;;;;5016233;28;20099;-65
2022/03/17 07:17:10;;;;;;;8.02;1.85;;;9.20;93.40;;;;;;5016278;28;20033;-65
2022/03/17 07:19:36;;;;;;;10.85;1.40;;;9.20;93.50;;;;;;5033723;28;20473;-65
2022/03/17 07:22:03;;;;;;;7.30;1.45;;;9.20;93.30;;;;;;5032740;28;20037;-65
2022/03/17 07:24:28;;;;;;;6.50;1.30;;;9.20;93.00;;;;;;5033897;28;20033;-65
2022/03/17 07:26:54;;;;;;;9.68;2.00;;;9.20;93.10;;;;;;5032655;28;20687;-65
2022/03/17 07:29:20;;;;;;;6.40;1.67;;;9.20;93.00;;;;;;5031267;28;20397;-65
2022/03/17 07:31:46;;;;;;;10.85;1.55;;;9.20;92.90;;;;;;5034132;28;20469;-65
2022/03/17 07:34:12;;;;;;;9.02;1.38;;;9.20;92.70;;;;;;5029262;28;20470;-66
2022/03/17 07:36:37;;;;;;;7.22;1.20;;;9.20;92.60;;;;;;5024434;28;20469;-65
2022/03/17 07:39:03;;;;;;;11.35;1.63;;;9.20;92.50;;;;;;5033232;28;20033;-66
2022/03/17 07:41:30;;;;;;;8.77;1.23;;;9.10;92.50;;;;;;5033714;28;20017;-65
2022/03/17 07:43:55;;;;;;;8.90;1.13;;;9.20;92.50;;;;;;5033288;28;20029;-66
2022/03/17 07:46:21;;;;;;;10.35;1.30;;;9.10;92.50;;;;;;5033932;28;20036;-66
2022/03/17 07:48:46;;;;;;;9.25;1.30;;;9.20;92.50;;;;;;5031113;28;20430;-66
2022/03/17 07:51:12;;;;;;;5.50;0.90;;;9.20;92.40;;;;;;5032208;28;20037;-65
2022/03/17 07:53:39;;;;;;;8.95;1.00;;;9.30;92.40;;;;;;5031977;28;20026;-66
2022/03/17 07:56:07;;;;;;;6.15;0.98;;;9.30;92.20;;;;;;5031263;28;20109;-65
2022/03/17 07:58:33;;;;;;;8.40;1.38;;;9.30;92.10;;;;;;5014896;28;20026;-65
2022/03/17 08:01:00;;;;;;;5.45;0.82;;;9.30;91.90;;;;;;5033209;28;20021;-65
2022/03/17 08:03:26;;;;;;;5.35;1.10;;;9.40;91.80;;;;;;5032755;28;20064;-65
2022/03/17 08:05:52;;;;;;;11.15;2.50;;;9.30;91.80;;;;;;5033184;28;20061;-65
2022/03/17 08:08:19;;;;;;;9.80;1.42;;;9.30;91.60;;;;;;5033385;28;20034;-65
2022/03/17 08:10:44;;;;;;;9.13;1.23;;;9.30;91.60;;;;;;5033179;28;20038;-65
2022/03/17 08:13:11;;;;;;;4.50;0.75;;;9.30;91.70;;;;;;5032787;28;20108;-65
2022/03/17 08:15:37;;;;;;;7.10;0.93;;;9.20;91.80;;;;;;5033083;28;20018;-65
2022/03/17 08:18:07;;;;;;;8.70;1.17;;;9.20;91.80;;;;;;5033072;28;20030;-65
2022/03/17 08:20:37;;;;;;;;;;;9.20;91.80;;;;;;5033025;28;20021;-65
2022/03/17 08:23:02;;;;;;;6.35;1.48;;;9.20;91.80;;;;;;5014955;28;19909;-65
2022/03/17 08:25:27;;;;;;;4.60;0.70;;;9.20;91.70;;;;;;5032951;28;20030;-65
2022/03/17 08:27:55;;;;;;;3.63;0.77;;;9.30;91.60;;;;;;5032939;28;20500;-66
2022/03/17 08:30:21;;;;;;;4.57;1.55;;;9.30;91.50;;;;;;5031248;28;20036;-66
2022/03/17 08:32:47;;;;;;;3.35;0.88;;;9.40;91.30;;;;;;5032701;28;20390;-66
2022/03/17 08:35:14;;;;;;;4.03;0.70;;;9.50;91.00;;;;;;5033003;28;20025;-65
2022/03/17 08:37:44;;;;;;;5.18;0.73;;;9.50;90.90;;;;;;5032826;28;20072;-65
2022/03/17 08:40:10;;;;;;;;;;;9.60;90.70;;;;;;5033066;28;20393;-66
2022/03/17 08:42:36;;;;;;;13.15;2.08;;;9.60;90.60;;;;;;5032684;28;19909;-65
2022/03/17 08:49:18;;;;;;;3.78;0.80;;;9.70;90.30;;;;;;5032671;28;20032;-65
2022/03/17 08:50:32;;;;;;;5.68;1.00;;;9.90;89.70;;;;;;5032606;28;20088;-65
2022/03/17 08:52:58;;;;;;;8.48;1.75;;;10.00;89.10;;;;;;5032435;28;20021;-65
2022/03/17 08:55:24;;;;;;;7.47;1.65;;;10.10;88.20;;;;;;5031240;28;20055;-65
2022/03/17 08:57:49;;;;;;;8.93;0.95;;;10.20;87.50;;;;;;5032168;28;20029;-65
2022/03/17 09:00:15;;;;;;;5.30;0.80;;;10.20;87.10;;;;;;5032369;28;20029;-66
2022/03/17 09:02:44;;;;;;;7.18;0.95;;;10.20;86.90;;;;;;5030495;28;20471;-65
2022/03/17 09:05:10;;;;;;;6.28;0.80;;;10.30;87.30;;;;;;5030718;28;20542;-65
2022/03/17 09:07:36;;;;;;;5.68;1.13;;;10.30;86.10;;;;;;5030452;28;20048;-65
2022/03/17 09:10:02;;;;;;;4.22;0.93;;;10.40;85.60;;;;;;5013019;28;20393;-66
2022/03/17 09:12:30;;;;;;;5.80;1.00;;;10.40;85.60;;;;;;5030543;28;20029;-65
2022/03/17 09:14:56;;;;;;;6.10;0.88;;;10.50;85.30;;;;;;5030506;28;20442;-65
2022/03/17 09:17:21;;;;;;;7.32;0.90;;;10.50;85.00;;;;;;5030502;28;20104;-65
2022/03/17 09:19:47;;;;;;;4.07;0.70;;;10.60;85.30;;;;;;5030352;28;20022;-65
2022/03/17 09:22:12;;;;;;;4.57;1.02;;;10.60;84.40;;;;;;5030361;28;20497;-66
2022/03/17 09:24:38;;;;;;;5.38;0.93;;;10.70;84.00;;;;;;5030420;28;20078;-65
2022/03/17 09:27:05;;;;;;;6.82;1.15;;;10.70;83.40;;;;;;5030386;28;20028;-66
2022/03/17 09:29:30;;;;;;;7.05;1.00;;;10.70;82.60;;;;;;5012694;28;20021;-65
2022/03/17 09:32:00;;;;;;;9.15;1.77;;;10.70;81.70;;;;;;5029980;28;20028;-66
2022/03/17 09:34:26;;;;;;;6.35;1.20;;;10.70;81.20;;;;;;5029799;28;20020;-66
2022/03/17 09:36:52;;;;;;;6.43;1.00;;;10.70;79.90;;;;;;5030550;28;20147;-66
2022/03/17 09:42:02;;;;;;;7.20;0.80;;;10.80;79.40;;;;;;5012270;28;20041;-66
2022/03/17 09:44:28;;;;;;;6.43;1.67;;;10.80;79.40;;;;;;5011963;28;20377;-65
2022/03/17 09:46:56;;;;;;;4.25;0.77;;;10.80;78.90;;;;;;5012149;28;20041;-66
2022/03/17 09:49:23;;;;;;;7.97;0.90;;;10.80;78.60;;;;;;5010684;28;20494;-66
2022/03/17 09:51:50;;;;;;;6.32;0.90;;;10.80;78.40;;;;;;5012033;28;20444;-67
2022/03/17 09:54:16;;;;;;;9.23;1.40;;;10.90;78.60;;;;;;5025271;28;20057;-65
2022/03/17 09:56:41;;;;;;;10.27;1.35;;;10.90;79.10;;;;;;5030674;28;20030;-66
2022/03/17 09:59:07;;;;;;;10.38;2.03;;;10.90;79.20;;;;;;5031889;28;20507;-66
2022/03/17 10:01:33;;;;;;;6.07;1.00;;;10.90;79.30;;;;;;5031503;28;20469;-66
2022/03/17 10:04:03;;;;;;;8.23;1.95;;;10.80;79.60;;;;;;5031685;28;20105;-66
2022/03/17 10:06:29;;;;;;;6.78;1.25;;;10.80;79.70;;;;;;5031682;28;20496;-66
2022/03/17 10:08:56;;;;;;;5.15;1.02;;;10.80;79.60;;;;;;5031662;28;20037;-66
2022/03/17 10:11:27;;;;;;;6.35;1.23;;;10.90;79.30;;;;;;5013709;28;20412;-66
2022/03/17 10:13:57;;;;;;;5.97;1.00;;;10.90;78.10;;;;;;5031455;28;20026;-66
2022/03/17 10:16:25;;;;;;;6.55;0.85;;;11.00;77.60;;;;;;5031603;28;20022;-66
2022/03/17 10:19:08;;;;;;;4.25;0.90;;;11.00;76.70;;;;;;5031712;28;20025;-66
2022/03/17 10:21:34;;;;;;;6.13;1.00;;;11.10;75.90;;;;;;5031467;28;20113;-66
2022/03/17 10:24:06;;;;;;;6.45;1.00;;;11.10;75.10;;;;;;5030951;28;20041;-66
2022/03/17 10:26:36;;;;;;;4.95;0.88;;;11.20;74.90;;;;;;5011769;28;20026;-66
2022/03/17 10:29:19;;;;;;;4.10;0.70;;;11.20;74.70;;;;;;5012063;28;20022;-66
2022/03/17 10:32:07;;;;;;;7.03;0.80;;;11.40;75.20;;;;;;5011685;28;20034;-66
2022/03/17 10:34:55;;;;;;;6.97;1.13;;;11.40;75.00;;;;;;5011575;28;20425;-66
2022/03/17 10:37:22;;;;;;;6.53;0.82;;;11.50;74.50;;;;;;5028290;28;20071;-66
2022/03/17 10:39:55;;;;;;;5.45;0.80;;;11.60;74.30;;;;;;5031386;28;20081;-66
2022/03/17 10:42:24;;;;;;;5.28;1.15;;;11.80;73.90;;;;;;5030086;28;20018;-66
2022/03/17 10:44:58;;;;;;;3.70;0.90;;;11.90;73.20;;;;;;5033027;28;20030;-66
2022/03/17 10:47:33;;;;;;;3.70;0.60;;;12.10;72.30;;;;;;5034185;28;20022;-66
2022/03/17 10:50:19;;;;;;;4.50;0.60;;;12.30;72.20;;;;;;5032116;28;20029;-66
2022/03/17 10:52:55;;;;;;;3.42;0.60;;;12.60;72.20;;;;;;5032249;28;20025;-66
2022/03/17 10:55:26;;;;;;;6.10;0.60;;;12.80;71.10;;;;;;5032804;28;20056;-65
2022/03/17 10:58:15;;;;;;;4.03;0.70;;;12.80;70.40;;;;;;5026223;28;20091;-66
2022/03/17 11:00:45;;;;;;;2.72;0.47;;;12.90;70.30;;;;;;5033091;28;20024;-66
2022/03/17 11:03:12;;;;;;;3.08;0.80;;;13.20;70.20;;;;;;5032951;28;20061;-66
2022/03/17 11:05:38;;;;;;;4.35;0.90;;;13.50;69.70;;;;;;5033056;28;20030;-66
2022/03/17 11:08:09;;;;;;;7.38;1.10;;;13.60;68.20;;;;;;5032744;28;20437;-66
2022/03/17 11:10:36;;;;;;;3.95;0.90;;;13.50;67.70;;;;;;5030618;28;20076;-66
2022/03/17 11:13:09;;;;;;;4.10;0.93;;;13.60;67.80;;;;;;5032890;28;20033;-66
2022/03/17 11:15:38;;;;;;;4.18;0.65;;;13.60;67.60;;;;;;5032743;28;20028;-66
2022/03/17 11:18:06;;;;;;;;;;;13.80;68.20;;;;;;5033371;28;20100;-66
2022/03/17 11:20:32;;;;;;;4.35;1.10;;;14.20;67.60;;;;;;5032369;28;19912;-66
2022/03/17 11:23:20;;;;;;;4.57;0.70;;;14.40;66.60;;;;;;5005922;28;20557;-66
2022/03/17 11:25:53;;;;;;;3.35;0.88;;;14.60;65.90;;;;;;5032606;28;20021;-66
2022/03/17 11:28:30;;;;;;;5.03;1.13;;;14.50;65.30;;;;;;5032815;28;20025;-66
2022/03/17 11:31:03;;;;;;;4.45;0.98;;;14.30;65.50;;;;;;5030099;28;20056;-66
2022/03/17 11:33:36;;;;;;;3.85;0.98;;;14.20;66.40;;;;;;5032310;28;20116;-66
2022/03/17 11:36:15;;;;;;;3.92;1.00;;;14.60;66.90;;;;;;5032494;28;20029;-66
2022/03/17 11:39:02;;;;;;;4.13;0.80;;;15.20;66.50;;;;;;5011507;28;20381;-66
2022/03/17 11:41:30;;;;;;;4.75;0.90;;;15.60;64.50;;;;;;5031871;28;20018;-66
2022/03/17 11:43:56;;;;;;;4.25;0.80;;;16.20;62.80;;;;;;5030183;28;20049;-66
2022/03/17 11:46:45;;;;;;;3.47;0.80;;;16.70;61.00;;;;;;5032549;28;20335;-66
2022/03/17 11:49:26;;;;;;;3.63;0.80;;;16.50;59.70;;;;;;5031785;28;20099;-67
2022/03/17 11:52:03;;;;;;;4.18;0.90;;;16.20;59.50;;;;;;5031966;28;20029;-66
2022/03/17 11:54:30;;;;;;;6.38;1.02;;;16.30;59.60;;;;;;5031818;28;20387;-66
2022/03/17 11:57:06;;;;;;;6.13;1.17;;;16.70;57.30;;;;;;5031524;28;20049;-66
2022/03/17 11:59:55;;;;;;;3.28;0.70;;;17.10;55.70;;;;;;5022218;28;20013;-67
2022/03/17 12:02:28;;;;;;;4.80;0.80;;;17.70;55.00;;;;;;5031885;28;20053;-67
2022/03/17 12:04:53;;;;;;;2.53;0.90;;;18.00;52.60;;;;;;5031812;28;20022;-67
2022/03/17 12:07:20;;;;;;;2.75;0.70;;;18.20;51.90;;;;;;5031771;28;20028;-67
2022/03/17 12:09:47;;;;;;;5.00;0.90;;;18.70;51.70;;;;;;5031636;28;20583;-66
2022/03/17 12:12:17;;;;;;;2.72;0.80;;;19.30;50.20;;;;;;5031591;28;20464;-67
2022/03/17 12:14:52;;;;;;;2.83;0.70;;;19.60;50.30;;;;;;5014661;28;20112;-67
2022/03/17 12:17:19;;;;;;;3.58;0.70;;;19.70;49.10;;;;;;5033221;28;20473;-67
2022/03/17 12:19:49;;;;;;;3.83;0.70;;;20.00;47.90;;;;;;5033083;28;20583;-66
2022/03/17 12:22:36;;;;;;;4.07;0.80;;;20.50;47.30;;;;;;5033540;28;20021;-67
2022/03/17 12:25:11;;;;;;;3.80;1.20;;;21.00;46.90;;;;;;5015174;28;20039;-67
2022/03/17 12:27:38;;;;;;;4.72;1.20;;;21.00;46.00;;;;;;5015248;28;20026;-67
2022/03/17 12:30:15;;;;;;;3.22;0.90;;;20.80;45.60;;;;;;5031998;28;20096;-69
2022/03/17 12:32:52;;;;;;;3.83;0.90;;;20.90;45.40;;;;;;5028749;28;20423;-67
2022/03/17 12:35:21;;;;;;;5.00;0.73;;;21.10;44.40;;;;;;5030978;28;20100;-67
2022/03/17 12:37:47;;;;;;;4.90;1.08;;;21.40;44.60;;;;;;5031172;28;20022;-67
2022/03/17 12:40:15;;;;;;;6.03;1.00;;;21.80;43.70;;;;;;5012753;28;20022;-67
2022/03/17 12:42:44;;;;;;;5.00;0.95;;;22.10;43.50;;;;;;5031060;28;20028;-67
2022/03/17 12:45:15;;;;;;;5.63;1.20;;;22.40;43.10;;;;;;5031755;28;20079;-67
2022/03/17 12:47:56;;;;;;;2.97;0.80;;;22.50;42.60;;;;;;5030887;28;20029;-67
2022/03/17 12:50:22;;;;;;;6.35;1.10;;;22.40;42.50;;;;;;5030821;28;20051;-67
2022/03/17 12:52:49;;;;;;;4.65;0.60;;;22.90;42.20;;;;;;5030982;28;20052;-68
2022/03/17 12:55:16;;;;;;;3.97;0.90;;;23.50;41.20;;;;;;5030726;28;20037;-67
2022/03/17 12:57:42;;;;;;;6.50;0.80;;;23.20;39.60;;;;;;5029827;28;20049;-67
2022/03/17 13:00:10;;;;;;;4.50;1.27;;;22.40;40.50;;;;;;5030378;28;20071;-68